Time;durP1;ratioP1;P1;durP2;ratioP2;P2;SDS_P1;SDS_P2;PMS_P1;PMS_P2;Temp;Humidity;BMP_temperature;BMP_pressure;BME280_temperature;BME280_humidity;BME280_pressure;Samples;Min_cycle;Max_cycle;Signal;HPM_P1;HPM_P2
2021/12/13 00:02:34;;;;;;;37.50;12.95;;;;;;;4.82;100.00;98914.03;4907377;28;20060;-56
2021/12/13 00:05:25;;;;;;;30.92;12.10;;;;;;;4.87;100.00;98910.56;4907764;29;20027;-56
2021/12/13 00:08:03;;;;;;;52.80;13.65;;;;;;;4.75;100.00;98907.16;4911231;29;20743;-56
2021/12/13 00:10:39;;;;;;;40.17;13.48;;;;;;;4.84;100.00;98916.59;4908231;28;20454;-58
2021/12/13 00:13:14;;;;;;;31.02;13.20;;;;;;;4.87;100.00;98913.13;4906160;29;20027;-57
2021/12/13 00:15:51;;;;;;;34.05;12.07;;;;;;;5.06;100.00;98912.22;4905018;28;20099;-56
2021/12/13 00:18:23;;;;;;;45.85;14.10;;;;;;;4.83;100.00;98912.28;4910796;29;20162;-56
2021/12/13 00:20:51;;;;;;;;;;;;;;;5.03;100.00;98904.47;4910141;28;20039;-56
2021/12/13 00:23:19;;;;;;;35.20;12.98;;;;;;;4.90;100.00;98910.56;4907132;29;19966;-56
2021/12/13 00:25:47;;;;;;;30.20;11.38;;;;;;;4.80;100.00;98910.59;4906153;29;20164;-56
2021/12/13 00:28:18;;;;;;;35.58;12.30;;;;;;;4.58;100.00;98908.94;4906748;29;20023;-56
2021/12/13 00:30:53;;;;;;;34.22;13.18;;;;;;;4.83;100.00;98905.41;4908475;29;20040;-55
2021/12/13 00:33:28;;;;;;;52.63;14.68;;;;;;;5.07;100.00;98908.75;4907202;29;20034;-56
2021/12/13 00:36:05;;;;;;;38.97;12.48;;;;;;;4.88;100.00;98912.28;4908965;28;20991;-56
2021/12/13 00:38:37;;;;;;;31.65;12.45;;;;;;;4.79;100.00;98910.59;4908773;29;20057;-57
2021/12/13 00:41:09;;;;;;;38.50;13.18;;;;;;;4.73;100.00;98911.47;4907439;29;20035;-56
2021/12/13 00:43:43;;;;;;;38.72;13.18;;;;;;;4.92;100.00;98908.81;4904412;29;20031;-56
2021/12/13 00:46:12;;;;;;;40.75;12.52;;;;;;;4.93;100.00;98911.41;4905499;28;20040;-56
2021/12/13 00:48:40;;;;;;;34.97;12.65;;;;;;;4.99;100.00;98911.38;4906636;29;20056;-56
2021/12/13 00:51:10;;;;;;;29.92;12.05;;;;;;;4.95;100.00;98916.56;4906491;29;20616;-56
2021/12/13 00:53:39;;;;;;;41.33;13.65;;;;;;;4.91;100.00;98912.28;4908849;29;20111;-56
2021/12/13 00:56:47;;;;;;;52.75;14.35;;;;;;;4.99;100.00;98916.53;4906400;29;20069;-56
2021/12/13 00:59:38;;;;;;;44.00;13.18;;;;;;;4.88;100.00;98922.63;4911593;29;20036;-56
2021/12/13 01:02:19;;;;;;;32.70;12.05;;;;;;;4.98;100.00;98920.00;4912153;29;20436;-56
2021/12/13 01:05:06;;;;;;;36.35;12.25;;;;;;;5.01;100.00;98932.06;4910072;29;20035;-56
2021/12/13 01:07:34;;;;;;;33.03;11.77;;;;;;;4.76;100.00;98926.97;4907818;29;20072;-56
2021/12/13 01:10:18;;;;;;;36.88;12.38;;;;;;;5.08;100.00;98935.50;4907369;29;20949;-56
2021/12/13 01:12:49;;;;;;;28.63;10.88;;;;;;;4.96;100.00;98928.63;4906776;29;20040;-56
2021/12/13 01:15:28;;;;;;;34.70;12.30;;;;;;;5.02;100.00;98926.03;4908675;29;20190;-56
2021/12/13 01:18:04;;;;;;;40.40;12.55;;;;;;;4.88;100.00;98928.66;4908320;29;20024;-56
2021/12/13 01:20:58;;;;;;;34.92;11.45;;;;;;;5.26;100.00;98921.63;4908245;29;20088;-58
2021/12/13 01:23:47;;;;;;;35.42;12.35;;;;;;;5.08;100.00;98915.66;4907379;29;20055;-56
2021/12/13 01:28:53;;;;;;;41.53;12.45;;;;;;;4.82;100.00;98928.69;4908589;29;20029;-56
2021/12/13 01:31:25;;;;;;;29.73;11.20;;;;;;;5.03;100.00;98938.06;4906824;29;20055;-56
2021/12/13 01:33:53;;;;;;;31.60;11.77;;;;;;;5.14;100.00;98941.47;4909164;29;20766;-56
2021/12/13 01:36:27;;;;;;;32.40;11.05;;;;;;;4.86;100.00;98939.88;4907156;29;20044;-56
2021/12/13 01:39:06;;;;;;;39.50;12.10;;;;;;;4.72;100.00;98938.16;4911084;29;20028;-58
2021/12/13 01:41:52;;;;;;;37.00;12.70;;;;;;;4.82;100.00;98945.03;4907542;29;20040;-57
2021/12/13 01:44:23;;;;;;;46.30;12.32;;;;;;;4.71;100.00;98939.03;4908605;29;20564;-56
2021/12/13 01:46:56;;;;;;;42.50;12.45;;;;;;;4.62;100.00;98942.50;4908198;29;20223;-56
2021/12/13 01:49:34;;;;;;;37.95;12.48;;;;;;;4.87;100.00;98941.56;4908410;29;20024;-56
2021/12/13 01:52:00;;;;;;;45.75;12.82;;;;;;;5.05;100.00;98930.31;4907351;29;20036;-56
2021/12/13 01:54:28;;;;;;;48.53;12.05;;;;;;;4.85;100.00;98940.72;4910554;29;20086;-56
2021/12/13 01:59:53;;;;;;;39.40;11.90;;;;;;;5.02;100.00;98932.06;4908805;29;20020;-56
2021/12/13 02:02:38;;;;;;;34.05;11.88;;;;;;;5.08;100.00;98935.50;4912177;29;20036;-57
2021/12/13 02:05:08;;;;;;;36.80;11.55;;;;;;;5.09;100.00;98938.06;4906268;28;20051;-56
2021/12/13 02:07:43;;;;;;;32.40;11.48;;;;;;;4.97;100.00;98932.94;4907312;29;20043;-56
2021/12/13 02:10:17;;;;;;;39.47;11.95;;;;;;;4.95;100.00;98929.50;4907850;28;20028;-55
2021/12/13 02:12:44;;;;;;;47.70;12.93;;;;;;;4.91;100.00;98930.38;4906996;29;20031;-57
2021/12/13 02:17:58;;;;;;;33.80;11.88;;;;;;;4.87;100.00;98926.06;4911321;29;20098;-56
2021/12/13 02:20:35;;;;;;;40.58;12.25;;;;;;;4.96;100.00;98931.22;4912658;28;20542;-56
2021/12/13 02:23:02;;;;;;;44.97;12.50;;;;;;;4.81;100.00;98927.81;4910005;29;20150;-57
2021/12/13 02:25:32;;;;;;;32.42;11.68;;;;;;;4.74;100.00;98914.91;4912842;29;20048;-56
2021/12/13 02:28:17;;;;;;;31.85;10.85;;;;;;;4.99;100.00;98920.84;4910308;29;20027;-55
2021/12/13 02:30:54;;;;;;;30.52;10.35;;;;;;;4.87;100.00;98923.47;4912272;29;20680;-56
2021/12/13 02:33:25;;;;;;;39.28;12.20;;;;;;;4.79;100.00;98924.34;4909429;29;20024;-57
2021/12/13 02:35:55;;;;;;;37.65;11.38;;;;;;;4.86;100.00;98924.38;4909411;29;20114;-56
2021/12/13 02:38:23;;;;;;;32.67;11.15;;;;;;;4.81;100.00;98927.81;4909967;29;20040;-56
2021/12/13 02:40:51;;;;;;;52.30;12.32;;;;;;;4.85;100.00;98925.22;4909929;28;20035;-57
2021/12/13 02:43:21;;;;;;;31.90;10.95;;;;;;;4.87;100.00;98926.06;4909862;29;20036;-56
2021/12/13 02:45:51;;;;;;;34.28;10.65;;;;;;;5.09;100.00;98932.91;4911602;29;20348;-58
2021/12/13 02:48:24;;;;;;;39.40;12.27;;;;;;;4.87;100.00;98923.47;4911159;29;20539;-57
2021/12/13 02:51:11;;;;;;;36.30;11.68;;;;;;;5.24;100.00;98929.38;4910415;28;20035;-56
2021/12/13 02:53:45;;;;;;;37.80;11.15;;;;;;;4.90;100.00;98931.25;4912730;29;20312;-56
2021/12/13 02:56:12;;;;;;;30.70;11.25;;;;;;;4.77;100.00;98926.09;4911467;28;20043;-56
2021/12/13 02:58:39;;;;;;;34.88;11.43;;;;;;;4.92;100.00;98929.50;4910795;29;20024;-56
2021/12/13 03:01:22;;;;;;;30.58;10.70;;;;;;;4.91;100.00;98938.16;4913695;29;20071;-56
2021/12/13 03:03:53;;;;;;;35.63;11.15;;;;;;;4.75;100.00;98933.00;4911116;29;20032;-56
2021/12/13 03:06:23;;;;;;;40.05;12.02;;;;;;;4.71;100.00;98941.63;4912261;28;20036;-57
2021/12/13 03:08:53;;;;;;;36.05;11.20;;;;;;;4.76;100.00;98939.91;4910627;29;20122;-56
2021/12/13 03:11:27;;;;;;;37.33;11.27;;;;;;;4.71;100.00;98946.81;4908533;29;20092;-56
2021/12/13 03:13:57;;;;;;;34.50;10.43;;;;;;;4.80;100.00;98935.59;4910661;29;20109;-57
2021/12/13 03:16:28;;;;;;;41.28;11.38;;;;;;;4.81;100.00;98932.97;4909821;29;20273;-56
2021/12/13 03:19:06;;;;;;;35.78;10.93;;;;;;;4.79;100.00;98939.88;4909413;29;20114;-57
2021/12/13 03:22:06;;;;;;;35.95;10.73;;;;;;;5.06;100.00;98940.66;4909639;29;20051;-56
2021/12/13 03:24:34;;;;;;;36.78;11.20;;;;;;;4.98;100.00;98944.97;4908360;29;20127;-56
2021/12/13 03:27:48;;;;;;;54.63;11.43;;;;;;;4.76;100.00;98949.34;4909189;29;20044;-56
2021/12/13 03:30:21;;;;;;;39.17;11.20;;;;;;;4.96;100.00;98946.72;4907647;28;20047;-57
2021/12/13 03:32:57;;;;;;;37.13;11.10;;;;;;;5.02;100.00;98946.72;4910241;29;20051;-57
2021/12/13 03:35:31;;;;;;;45.55;11.00;;;;;;;4.82;100.00;98950.22;4908297;29;20035;-56
2021/12/13 03:38:04;;;;;;;38.72;10.98;;;;;;;4.92;100.00;98945.00;4910112;29;20063;-56
2021/12/13 03:40:32;;;;;;;44.60;11.25;;;;;;;4.70;100.00;98945.06;4908518;29;20804;-57
2021/12/13 03:43:04;;;;;;;63.67;12.65;;;;;;;5.07;100.00;98954.44;4909580;29;20027;-57
2021/12/13 03:45:41;;;;;;;44.80;11.40;;;;;;;5.17;100.00;98957.00;4909879;28;20040;-56
2021/12/13 03:48:09;;;;;;;42.95;11.02;;;;;;;5.02;100.00;98957.06;4911830;29;20600;-57
2021/12/13 03:50:39;;;;;;;39.08;10.82;;;;;;;5.14;100.00;98959.59;4909696;29;20044;-56
2021/12/13 03:53:11;;;;;;;38.40;11.55;;;;;;;5.02;100.00;98963.09;4909804;29;20043;-56
2021/12/13 03:55:39;;;;;;;37.40;11.07;;;;;;;5.01;100.00;98963.09;4909748;29;20044;-56
2021/12/13 03:58:09;;;;;;;43.83;11.82;;;;;;;4.55;100.00;98965.78;4910830;29;20031;-55
2021/12/13 04:00:42;;;;;;;48.40;11.10;;;;;;;4.72;100.00;98974.34;4908864;29;20114;-55
2021/12/13 04:03:10;;;;;;;45.95;10.95;;;;;;;4.76;100.00;98965.75;4908508;29;20402;-55
2021/12/13 04:05:36;;;;;;;43.53;11.73;;;;;;;4.70;100.00;98960.56;4908846;29;20122;-55
2021/12/13 04:08:07;;;;;;;45.83;11.93;;;;;;;4.79;100.00;98960.56;4909762;29;20038;-55
2021/12/13 04:10:38;;;;;;;39.50;11.18;;;;;;;4.73;100.00;98972.66;4909109;28;20418;-55
2021/12/13 04:13:12;;;;;;;43.47;11.30;;;;;;;4.74;100.00;98976.94;4909982;29;20028;-57
2021/12/13 04:21:15;;;;;;;40.78;11.27;;;;;;;4.65;100.00;98967.50;4908332;28;20244;-57
2021/12/13 04:23:48;;;;;;;41.45;11.07;;;;;;;4.86;100.00;98976.91;4910162;29;20031;-55
2021/12/13 04:26:14;;;;;;;41.33;11.80;;;;;;;4.69;100.00;98966.63;4908960;28;20040;-55
2021/12/13 04:28:43;;;;;;;39.53;11.10;;;;;;;4.69;100.00;98969.22;4911127;29;20039;-55
2021/12/13 04:31:14;;;;;;;33.53;10.20;;;;;;;4.66;100.00;98971.78;4907260;28;20040;-56
2021/12/13 04:33:53;;;;;;;29.25;9.77;;;;;;;4.60;100.00;98974.38;4909480;29;20031;-56
2021/12/13 04:36:26;;;;;;;40.00;10.80;;;;;;;4.43;100.00;98974.41;4906875;28;20775;-55
2021/12/13 04:39:13;;;;;;;39.03;10.45;;;;;;;4.64;100.00;98976.09;4909524;29;20025;-55
2021/12/13 04:41:53;;;;;;;36.63;10.05;;;;;;;4.78;100.00;98979.53;4909252;29;20032;-57
2021/12/13 04:44:33;;;;;;;44.00;11.63;;;;;;;4.78;100.00;98989.88;4908671;29;20098;-55
2021/12/13 04:47:06;;;;;;;46.70;11.55;;;;;;;4.80;100.00;98993.31;4909998;29;20050;-56
2021/12/13 04:49:35;;;;;;;34.38;10.15;;;;;;;4.70;100.00;98989.00;4908013;29;20028;-56
2021/12/13 04:52:06;;;;;;;42.03;11.30;;;;;;;4.78;100.00;98989.88;4907879;29;20132;-58
2021/12/13 04:54:34;;;;;;;42.30;10.88;;;;;;;4.89;100.00;98996.72;4916038;29;20477;-58
2021/12/13 04:57:00;;;;;;;55.17;12.25;;;;;;;5.11;100.00;98985.47;4909586;28;20040;-57
2021/12/13 04:59:28;;;;;;;34.92;10.68;;;;;;;4.70;100.00;98993.31;4908113;29;20028;-57
2021/12/13 05:01:57;;;;;;;53.00;11.88;;;;;;;4.66;100.00;99000.22;4906625;29;20071;-58
2021/12/13 05:04:26;;;;;;;42.53;10.90;;;;;;;5.00;100.00;98995.84;4908222;29;20042;-57
2021/12/13 05:06:52;;;;;;;43.63;11.38;;;;;;;5.25;100.00;98989.72;4906854;28;20116;-56
2021/12/13 05:09:21;;;;;;;43.67;11.13;;;;;;;5.08;100.00;98988.06;4917471;29;20714;-55
2021/12/13 05:11:53;;;;;;;55.83;12.30;;;;;;;5.04;100.00;98996.69;4908201;28;20055;-56
2021/12/13 05:14:38;;;;;;;39.75;10.25;;;;;;;5.09;100.00;98983.75;4908122;29;20717;-57
2021/12/13 05:17:15;;;;;;;27.17;9.13;;;;;;;5.14;100.00;98985.44;4907868;29;20042;-57
2021/12/13 05:19:45;;;;;;;43.00;10.57;;;;;;;4.60;100.00;98995.06;4910778;29;20023;-56
2021/12/13 05:22:13;;;;;;;38.45;10.13;;;;;;;4.57;100.00;99000.22;4907027;28;20044;-56
2021/12/13 05:24:58;;;;;;;47.60;10.95;;;;;;;4.99;100.00;98999.28;4908922;29;20075;-57
2021/12/13 05:27:30;;;;;;;36.63;10.73;;;;;;;5.01;100.00;99012.22;4906857;28;20067;-56
2021/12/13 05:30:13;;;;;;;30.65;9.77;;;;;;;5.09;100.00;99015.66;4909224;29;20080;-57
2021/12/13 05:32:45;;;;;;;39.03;10.60;;;;;;;5.24;100.00;99000.94;4906936;29;20056;-56
2021/12/13 05:35:16;;;;;;;34.28;9.80;;;;;;;5.20;100.00;99013.91;4908535;28;20960;-57
2021/12/13 05:37:48;;;;;;;39.15;10.60;;;;;;;5.25;100.00;99031.13;4908708;29;20024;-58
2021/12/13 05:40:16;;;;;;;;;;;;;;;4.97;100.00;99031.19;4908287;29;20024;-56
2021/12/13 05:42:47;;;;;;;30.33;9.18;;;;;;;5.21;100.00;99035.44;4911098;29;20643;-56
2021/12/13 05:45:42;;;;;;;49.10;10.90;;;;;;;5.12;100.00;99031.16;4906999;29;20554;-57
2021/12/13 05:48:16;;;;;;;37.45;10.10;;;;;;;5.13;100.00;99042.38;4907423;29;20038;-58
2021/12/13 05:50:52;;;;;;;51.10;10.55;;;;;;;4.73;100.00;99047.59;4910016;29;20409;-57
2021/12/13 05:53:19;;;;;;;42.95;10.85;;;;;;;4.90;100.00;99039.81;4911664;29;20042;-56
2021/12/13 05:55:58;;;;;;;36.72;10.88;;;;;;;5.08;100.00;99054.44;4911402;29;20158;-56
2021/12/13 05:58:50;;;;;;;56.53;11.25;;;;;;;4.78;100.00;99062.25;4911475;29;20027;-56
2021/12/13 06:01:19;;;;;;;48.90;12.57;;;;;;;5.04;100.00;99058.75;4910043;28;20119;-56
2021/12/13 06:03:51;;;;;;;48.42;11.73;;;;;;;5.09;100.00;99054.44;4910116;29;20071;-56
2021/12/13 06:06:21;;;;;;;46.75;12.32;;;;;;;5.31;100.00;99068.19;4915842;29;20054;-56
2021/12/13 06:08:52;;;;;;;53.20;11.57;;;;;;;5.10;100.00;99063.91;4914269;29;20035;-56
2021/12/13 06:11:32;;;;;;;36.72;9.95;;;;;;;5.00;100.00;99064.81;4913972;28;20044;-56
2021/12/13 06:14:01;;;;;;;28.38;10.05;;;;;;;5.03;100.00;99067.38;4915339;29;20024;-56
2021/12/13 06:16:26;;;;;;;32.60;10.27;;;;;;;5.09;100.00;99066.50;4912778;29;20035;-55
2021/12/13 06:18:58;;;;;;;41.78;10.27;;;;;;;4.92;100.00;99058.78;4915220;29;20045;-56
2021/12/13 06:22:01;;;;;;;39.47;10.45;;;;;;;4.95;100.00;99069.13;4913159;28;20126;-56
2021/12/13 06:24:51;;;;;;;38.30;10.18;;;;;;;5.05;100.00;99070.81;4913033;29;20063;-56
2021/12/13 06:27:21;;;;;;;31.02;9.07;;;;;;;4.81;100.00;99062.22;4912074;29;20099;-56
2021/12/13 06:30:07;;;;;;;51.58;10.80;;;;;;;5.01;100.00;99067.38;4913985;29;20182;-57
2021/12/13 06:32:42;;;;;;;36.22;10.00;;;;;;;4.98;100.00;99061.34;4912381;29;20066;-56
2021/12/13 06:35:29;;;;;;;45.90;9.70;;;;;;;5.15;100.00;99072.53;4913147;28;20606;-56
2021/12/13 06:37:56;;;;;;;42.67;9.43;;;;;;;5.22;100.00;99073.41;4913373;29;20012;-56
2021/12/13 06:40:29;;;;;;;40.60;12.30;;;;;;;5.12;100.00;99071.69;4917111;29;20015;-56
2021/12/13 06:42:59;;;;;;;53.90;11.20;;;;;;;5.29;100.00;99079.41;4913694;29;20023;-56
2021/12/13 06:45:36;;;;;;;41.42;9.75;;;;;;;5.34;100.00;99078.50;4914210;28;20035;-56
2021/12/13 06:48:05;;;;;;;30.60;9.20;;;;;;;5.31;100.00;99082.84;4912063;29;20451;-56
2021/12/13 06:50:37;;;;;;;32.70;9.35;;;;;;;5.08;100.00;99080.31;4913265;28;20127;-56
2021/12/13 06:53:15;;;;;;;34.08;9.55;;;;;;;5.55;100.00;99082.78;4914321;29;20585;-56
2021/12/13 06:55:42;;;;;;;36.40;10.07;;;;;;;5.30;100.00;99083.72;4914205;29;20091;-55
2021/12/13 06:58:14;;;;;;;51.22;10.15;;;;;;;5.03;100.00;99088.06;4915152;29;20631;-57
2021/12/13 07:00:40;;;;;;;31.45;8.80;;;;;;;5.13;100.00;99084.63;4911612;28;20092;-58
2021/12/13 07:03:09;;;;;;;35.80;9.45;;;;;;;5.01;100.00;99084.63;4911507;29;20044;-56
2021/12/13 07:05:48;;;;;;;29.15;8.68;;;;;;;5.21;100.00;99079.41;4911681;28;20399;-55
2021/12/13 07:08:19;;;;;;;30.25;8.40;;;;;;;5.02;100.00;99082.03;4913882;29;20126;-56
2021/12/13 07:11:08;;;;;;;25.98;7.60;;;;;;;5.16;100.00;99083.72;4912782;29;20098;-57
2021/12/13 07:13:37;;;;;;;30.45;8.95;;;;;;;5.26;100.00;99089.78;4913946;29;20083;-57
2021/12/13 07:16:11;;;;;;;28.02;7.95;;;;;;;5.19;100.00;99097.53;4912391;28;20546;-55
2021/12/13 07:18:52;;;;;;;19.45;5.38;;;;;;;5.91;100.00;99091.25;4911006;29;20086;-56
2021/12/13 07:21:17;;;;;;;18.75;5.72;;;;;;;6.01;100.00;99101.59;4914109;28;20054;-57
2021/12/13 07:24:09;;;;;;;20.45;6.43;;;;;;;6.39;100.00;99100.53;4912325;29;20028;-57
2021/12/13 07:26:36;;;;;;;17.15;5.78;;;;;;;6.83;100.00;99101.94;4914518;28;20530;-56
2021/12/13 07:29:31;;;;;;;33.47;8.32;;;;;;;6.11;100.00;99103.28;4913385;29;20024;-56
2021/12/13 07:32:20;;;;;;;23.58;7.28;;;;;;;6.42;100.00;99108.28;4912384;29;20036;-56
2021/12/13 07:35:16;;;;;;;32.03;8.10;;;;;;;6.54;100.00;99109.06;4911761;29;20631;-57
2021/12/13 07:37:52;;;;;;;32.45;7.93;;;;;;;7.19;100.00;99102.50;4910324;29;20055;-58
2021/12/13 07:40:26;;;;;;;35.75;10.23;;;;;;;7.80;100.00;99106.16;4911555;29;20418;-57
2021/12/13 07:43:03;;;;;;;21.23;7.78;;;;;;;6.24;100.00;99099.75;4912919;29;20023;-57
2021/12/13 07:45:56;;;;;;;24.65;8.00;;;;;;;5.88;100.00;99100.75;4914536;28;20138;-56
2021/12/13 07:48:21;;;;;;;;;;;;;;;6.13;100.00;99101.53;4912534;29;20695;-59
2021/12/13 07:51:22;;;;;;;31.55;8.23;;;;;;;6.18;100.00;99094.63;4912907;28;19922;-57
2021/12/13 07:53:47;;;;;;;24.48;7.45;;;;;;;5.84;100.00;99099.91;4910977;29;20052;-57
2021/12/13 07:56:26;;;;;;;21.70;7.40;;;;;;;5.94;100.00;99098.16;4912359;28;20063;-58
2021/12/13 07:59:25;;;;;;;23.40;7.05;;;;;;;6.23;100.00;99103.22;4918817;29;20064;-57
2021/12/13 08:02:16;;;;;;;24.15;7.95;;;;;;;5.96;100.00;99101.63;4912249;28;20479;-57
2021/12/13 08:04:48;;;;;;;21.13;7.53;;;;;;;5.93;100.00;99105.03;4912375;29;20494;-56
2021/12/13 08:07:20;;;;;;;22.95;7.57;;;;;;;6.26;100.00;99113.56;4912943;29;20045;-56
2021/12/13 08:10:02;;;;;;;25.23;7.40;;;;;;;6.06;100.00;99110.22;4912444;29;20028;-57
2021/12/13 08:12:36;;;;;;;;;;;;;;;5.95;100.00;99118.00;4912742;28;20048;-57
2021/12/13 08:15:13;;;;;;;24.98;7.53;;;;;;;6.03;100.00;99118.00;4912324;29;19915;-57
2021/12/13 08:17:49;;;;;;;26.25;8.23;;;;;;;6.14;100.00;99118.81;4912495;29;20162;-56
2021/12/13 08:20:23;;;;;;;19.83;7.72;;;;;;;6.05;100.00;99124.06;4909236;29;20016;-57
2021/12/13 08:22:50;;;;;;;21.45;9.10;;;;;;;6.23;100.00;99129.13;4910641;29;20107;-56
2021/12/13 08:25:28;;;;;;;21.58;9.07;;;;;;;6.01;100.00;99127.50;4911477;28;20032;-56
2021/12/13 08:28:00;;;;;;;22.52;9.20;;;;;;;6.41;100.00;99127.28;4912106;29;20486;-57
2021/12/13 08:30:50;;;;;;;29.23;9.65;;;;;;;6.60;100.00;99134.09;4908955;28;20040;-57
2021/12/13 08:33:21;;;;;;;24.83;8.65;;;;;;;6.31;100.00;99137.72;4911155;29;20091;-57
2021/12/13 08:35:54;;;;;;;33.13;8.02;;;;;;;6.25;100.00;99132.56;4911875;29;20584;-56
2021/12/13 08:38:30;;;;;;;22.17;7.78;;;;;;;6.28;100.00;99127.34;4909768;29;20036;-58
2021/12/13 08:40:59;;;;;;;23.98;8.23;;;;;;;6.57;100.00;99134.09;4911949;28;20039;-57
2021/12/13 08:43:37;;;;;;;30.02;8.05;;;;;;;6.29;100.00;99129.09;4908749;29;20028;-57
2021/12/13 08:46:04;;;;;;;20.63;7.90;;;;;;;6.66;100.00;99138.38;4911119;29;20054;-57
2021/12/13 08:48:29;;;;;;;23.20;7.68;;;;;;;6.69;100.00;99141.81;4910580;29;20024;-57
2021/12/13 08:50:59;;;;;;;21.63;8.30;;;;;;;6.51;100.00;99144.53;4911720;29;20566;-57
2021/12/13 08:53:35;;;;;;;28.23;8.85;;;;;;;6.44;100.00;99137.66;4907835;29;20063;-56
2021/12/13 08:56:09;;;;;;;26.55;8.43;;;;;;;6.37;100.00;99137.66;4911804;29;20058;-56
2021/12/13 08:58:35;;;;;;;22.63;8.10;;;;;;;6.44;100.00;99142.84;4908605;29;20050;-57
2021/12/13 09:01:08;;;;;;;23.10;8.43;;;;;;;6.46;100.00;99149.72;4910668;28;20376;-56
2021/12/13 09:03:48;;;;;;;23.05;8.15;;;;;;;6.22;100.00;99142.94;4909343;29;20038;-57
2021/12/13 09:06:16;;;;;;;20.80;7.85;;;;;;;6.35;100.00;99144.59;4912607;28;20094;-57
2021/12/13 09:08:56;;;;;;;42.83;9.18;;;;;;;6.80;100.00;99136.53;4910619;29;20054;-56
2021/12/13 09:11:30;;;;;;;30.90;9.00;;;;;;;6.48;100.00;99134.16;4910174;28;20059;-56
2021/12/13 09:14:03;;;;;;;25.80;8.40;;;;;;;6.60;100.00;99144.47;4911133;29;20019;-56
2021/12/13 09:16:43;;;;;;;25.15;8.98;;;;;;;6.54;100.00;99147.06;4909547;29;20043;-57
2021/12/13 09:19:31;;;;;;;21.23;7.90;;;;;;;6.77;100.00;99146.09;4909326;29;20024;-57
2021/12/13 09:21:59;;;;;;;23.42;8.10;;;;;;;6.92;100.00;99145.94;4909946;29;20083;-57
2021/12/13 09:24:50;;;;;;;22.75;8.73;;;;;;;7.17;100.00;99148.31;4906604;29;20056;-56
2021/12/13 09:27:25;;;;;;;21.23;8.23;;;;;;;7.10;100.00;99151.00;4909992;29;20044;-56
2021/12/13 09:29:56;;;;;;;21.10;8.10;;;;;;;7.28;100.00;99156.91;4910368;29;20028;-58
2021/12/13 09:32:28;;;;;;;25.63;8.37;;;;;;;7.13;100.00;99150.97;4908241;29;20095;-56
2021/12/13 09:35:34;;;;;;;25.02;8.57;;;;;;;7.16;100.00;99157.00;4911746;29;20275;-56
2021/12/13 09:38:31;;;;;;;23.92;8.48;;;;;;;6.95;100.00;99156.31;4911989;29;20040;-57
2021/12/13 09:41:18;;;;;;;20.17;8.30;;;;;;;7.04;100.00;99156.25;4912825;28;20150;-57
2021/12/13 09:44:16;;;;;;;19.58;8.38;;;;;;;7.44;100.00;99148.06;4911418;29;20030;-56
2021/12/13 09:46:48;;;;;;;25.50;8.95;;;;;;;7.37;100.00;99141.25;4910322;29;20047;-57
2021/12/13 09:49:39;;;;;;;21.17;8.05;;;;;;;7.25;100.00;99143.94;4909993;29;20025;-57
2021/12/13 09:52:09;;;;;;;22.00;8.90;;;;;;;7.09;100.00;99146.66;4908403;29;20040;-58
2021/12/13 09:54:43;;;;;;;24.02;8.68;;;;;;;7.55;100.00;99144.50;4906762;29;20043;-57
2021/12/13 09:57:13;;;;;;;21.55;8.73;;;;;;;7.29;100.00;99141.28;4908715;29;20070;-57
2021/12/13 09:59:44;;;;;;;19.45;8.65;;;;;;;7.49;100.00;99137.66;4909051;29;20023;-57
2021/12/13 10:02:21;;;;;;;21.77;7.88;;;;;;;7.17;100.00;99135.34;4911010;29;20069;-57
2021/12/13 10:04:49;;;;;;;23.55;8.90;;;;;;;7.63;100.00;99134.94;4911266;29;20028;-57
2021/12/13 10:07:36;;;;;;;23.80;8.40;;;;;;;7.98;100.00;99138.84;4909968;28;20524;-57
2021/12/13 10:10:15;;;;;;;19.40;8.02;;;;;;;7.98;100.00;99138.84;4910307;29;20094;-57
2021/12/13 10:12:55;;;;;;;19.73;7.65;;;;;;;8.01;100.00;99131.00;4907676;29;20048;-57
2021/12/13 10:15:30;;;;;;;23.13;9.30;;;;;;;7.63;100.00;99132.31;4908890;28;20683;-56
2021/12/13 10:18:01;;;;;;;20.00;7.68;;;;;;;8.06;100.00;99124.84;4908269;29;20126;-56
2021/12/13 10:20:49;;;;;;;20.40;8.85;;;;;;;7.95;100.00;99129.34;4909714;29;20079;-56
2021/12/13 10:23:19;;;;;;;20.42;9.15;;;;;;;8.13;100.00;99130.84;4910376;29;20039;-55
2021/12/13 10:25:49;;;;;;;18.13;8.80;;;;;;;8.07;100.00;99124.00;4909331;29;20040;-56
2021/12/13 10:28:24;;;;;;;20.92;9.60;;;;;;;8.34;100.00;99121.88;4910213;29;20024;-56
2021/12/13 10:30:55;;;;;;;19.10;9.57;;;;;;;8.15;100.00;99123.88;4906557;29;20039;-55
2021/12/13 10:33:23;;;;;;;21.00;9.35;;;;;;;7.78;100.00;99124.34;4906790;29;20513;-56
2021/12/13 10:35:50;;;;;;;22.10;9.70;;;;;;;7.88;100.00;99120.78;4908238;28;20044;-56
2021/12/13 10:38:32;;;;;;;19.85;9.48;;;;;;;8.29;100.00;99116.78;4912371;29;20051;-56
2021/12/13 10:41:03;;;;;;;21.27;8.90;;;;;;;8.11;100.00;99112.66;4913330;29;20051;-56
2021/12/13 10:43:40;;;;;;;22.80;10.48;;;;;;;7.71;100.00;99114.91;4910559;29;20055;-56
2021/12/13 10:46:13;;;;;;;21.08;9.50;;;;;;;7.84;100.00;99113.88;4909501;29;20289;-57
2021/12/13 10:48:45;;;;;;;20.92;10.10;;;;;;;7.83;100.00;99111.28;4912544;29;20024;-56
2021/12/13 10:51:28;;;;;;;23.37;10.13;;;;;;;7.81;100.00;99108.75;4910843;29;20095;-58
2021/12/13 10:53:55;;;;;;;22.75;10.57;;;;;;;7.88;100.00;99112.97;4914956;29;20275;-55
2021/12/13 10:56:32;;;;;;;18.55;7.68;;;;;;;8.18;100.00;99123.84;4909718;29;20044;-56
2021/12/13 10:59:03;;;;;;;21.27;10.00;;;;;;;8.32;100.00;99117.59;4912062;29;20441;-56
2021/12/13 11:01:34;;;;;;;27.98;11.27;;;;;;;7.88;100.00;99115.59;4909439;28;20823;-57
2021/12/13 11:04:03;;;;;;;21.23;10.45;;;;;;;8.16;100.00;99114.34;4912862;29;20035;-58
2021/12/13 11:06:29;;;;;;;19.85;10.38;;;;;;;8.31;100.00;99114.16;4896023;29;20059;-56
2021/12/13 11:08:54;;;;;;;22.52;10.90;;;;;;;8.13;100.00;99110.06;4911885;29;20032;-57
2021/12/13 11:11:35;;;;;;;21.73;10.57;;;;;;;8.00;100.00;99108.50;4909721;29;20046;-56
2021/12/13 11:14:05;;;;;;;23.10;11.23;;;;;;;7.55;100.00;99115.94;4912987;29;20031;-56
2021/12/13 11:16:37;;;;;;;24.35;11.23;;;;;;;7.86;100.00;99111.25;4910657;29;20044;-56
2021/12/13 11:19:12;;;;;;;21.88;10.70;;;;;;;8.45;100.00;99111.38;4910940;29;20059;-55
2021/12/13 11:21:39;;;;;;;24.40;11.18;;;;;;;8.32;100.00;99115.00;4909899;29;20090;-56
2021/12/13 11:24:09;;;;;;;22.92;9.98;;;;;;;8.08;100.00;99106.66;4911757;29;20028;-57
2021/12/13 11:26:40;;;;;;;17.52;8.93;;;;;;;8.39;100.00;99114.88;4925076;28;20036;-57
2021/12/13 11:29:09;;;;;;;23.08;11.30;;;;;;;8.35;100.00;99112.38;4912490;29;20122;-57
2021/12/13 11:31:50;;;;;;;20.55;9.48;;;;;;;8.73;100.00;99105.75;4909648;28;20047;-56
2021/12/13 11:34:42;;;;;;;20.88;10.60;;;;;;;8.64;100.00;99104.16;4913043;29;20024;-56
2021/12/13 11:37:33;;;;;;;24.45;10.60;;;;;;;8.35;100.00;99105.41;4910935;28;20134;-57
2021/12/13 11:40:36;;;;;;;20.00;10.50;;;;;;;8.40;100.00;99107.94;4912430;29;20111;-56
2021/12/13 11:43:34;;;;;;;22.02;10.23;;;;;;;8.21;100.00;99103.00;4912638;29;20051;-56
2021/12/13 11:46:23;;;;;;;22.75;9.90;;;;;;;8.48;100.00;99100.94;4911680;28;20039;-57
2021/12/13 11:49:13;;;;;;;26.75;12.02;;;;;;;8.74;100.00;99107.47;4912544;29;20055;-56
2021/12/13 11:52:09;;;;;;;25.08;11.27;;;;;;;8.78;100.00;99104.78;4910559;29;20110;-56
2021/12/13 11:55:19;;;;;;;19.67;9.70;;;;;;;8.62;100.00;99099.00;4912599;29;20059;-56
2021/12/13 11:58:02;;;;;;;19.75;9.93;;;;;;;8.43;100.00;99092.34;4914461;29;20946;-56
2021/12/13 12:00:55;;;;;;;20.23;9.65;;;;;;;8.70;100.00;99093.66;4914927;28;20047;-55
2021/12/13 12:03:42;;;;;;;23.48;10.43;;;;;;;8.37;100.00;99095.84;4909898;29;20031;-56
2021/12/13 12:07:02;;;;;;;21.48;9.82;;;;;;;8.34;100.00;99093.28;4910088;28;20115;-56
2021/12/13 12:09:48;;;;;;;20.95;10.35;;;;;;;8.61;100.00;99092.06;4910560;29;20028;-56
2021/12/13 12:12:20;;;;;;;17.33;8.90;;;;;;;8.92;100.00;99098.53;4911848;29;20376;-56
2021/12/13 12:14:50;;;;;;;19.17;9.75;;;;;;;8.60;100.00;99086.88;4911296;29;20028;-56
2021/12/13 12:17:17;;;;;;;18.67;9.77;;;;;;;8.46;100.00;99092.31;4909853;29;20043;-56